createdAt,value
2018-01-15T00:00:51.699Z,86.5
2018-01-15T00:01:51.458Z,86.31
2018-01-15T00:02:51.726Z,85.99
2018-01-15T00:03:51.740Z,86.12
2018-01-15T00:04:51.749Z,85.51
2018-01-15T00:05:51.508Z,86.27
2018-01-15T00:06:51.782Z,85.8
2018-01-15T00:07:51.781Z,86.27
2018-01-15T00:08:51.801Z,85.42
2018-01-15T00:09:51.816Z,86.27
2018-01-15T00:10:51.828Z,86.27
2018-01-15T00:11:51.841Z,86.27
2018-01-15T00:12:51.900Z,86.18
2018-01-15T00:13:51.867Z,86.27
2018-01-15T00:14:51.878Z,86.6
2018-01-15T00:15:51.893Z,86.27
2018-01-15T00:16:51.931Z,86.46
2018-01-15T00:17:51.663Z,86.27
2018-01-15T00:18:51.928Z,86.36
2018-01-15T00:19:51.938Z,86.36
2018-01-15T00:20:51.951Z,86.27
2018-01-15T00:21:51.714Z,86.27
2018-01-15T00:22:51.979Z,86.27
2018-01-15T00:23:51.990Z,85.99
2018-01-15T00:24:52.004Z,86.18
2018-01-15T00:25:51.763Z,86.36
2018-01-15T00:26:52.029Z,86.08
2018-01-15T00:27:51.835Z,86.08
2018-01-15T00:28:51.801Z,85.89
2018-01-15T00:29:51.862Z,85.99
2018-01-15T00:30:52.077Z,85.99
2018-01-15T00:31:52.092Z,85.89
2018-01-15T00:32:52.103Z,85.89
2018-01-15T00:33:52.116Z,86.27
2018-01-15T00:34:51.875Z,86.27
2018-01-15T00:35:51.895Z,85.89
2018-01-15T00:36:51.899Z,86.08
2018-01-15T00:37:51.914Z,86.18
2018-01-15T00:38:52.178Z,86.65
2018-01-15T00:39:51.939Z,86.46
2018-01-15T00:40:51.950Z,86.36
2018-01-15T00:41:51.963Z,86.46
2018-01-15T00:42:52.025Z,85.7
2018-01-15T00:43:52.239Z,85.51
2018-01-15T00:44:51.999Z,86.27
2018-01-15T00:45:52.263Z,85.51
2018-01-15T00:46:52.026Z,86.27
2018-01-15T00:47:52.037Z,86.36
2018-01-15T00:48:52.052Z,85.8
2018-01-15T00:49:52.060Z,85.99
2018-01-15T00:50:52.331Z,86.08
2018-01-15T00:51:52.339Z,85.99
2018-01-15T00:52:52.198Z,85.89
2018-01-15T00:53:52.364Z,85.8
2018-01-15T00:54:52.379Z,86.08
2018-01-15T00:55:52.392Z,86.27
2018-01-15T00:56:52.405Z,85.89
2018-01-15T00:57:52.565Z,86.46
2018-01-15T00:58:52.194Z,86.08
2018-01-15T00:59:52.440Z,86.27
2018-01-15T01:00:52.202Z,86.83
2018-01-15T01:01:52.210Z,86.18
2018-01-15T01:02:52.479Z,86.18
2018-01-15T01:03:52.491Z,85.7
2018-01-15T01:04:52.250Z,86.36
2018-01-15T01:05:52.261Z,86.18
2018-01-15T01:06:52.527Z,85.99
2018-01-15T01:07:52.540Z,86.36
2018-01-15T01:08:52.300Z,86.27
2018-01-15T01:09:52.575Z,86.18
2018-01-15T01:10:52.578Z,86.36
2018-01-15T01:11:52.339Z,86.18
2018-01-15T01:12:52.654Z,85.99
2018-01-15T01:13:52.374Z,86.27
2018-01-15T01:14:52.626Z,86.36
2018-01-15T01:15:52.390Z,86.27
2018-01-15T01:16:52.652Z,86.36
2018-01-15T01:17:52.418Z,86.27
2018-01-15T01:18:52.426Z,86.18
2018-01-15T01:19:52.690Z,86.36
2018-01-15T01:20:52.457Z,86.46
2018-01-15T01:21:52.716Z,86.65
2018-01-15T01:22:52.748Z,86.36
2018-01-15T01:23:52.488Z,86.18
2018-01-15T01:24:52.753Z,86.36
2018-01-15T01:25:52.514Z,86.36
2018-01-15T01:26:52.530Z,86.18
2018-01-15T01:27:52.617Z,86.55
2018-01-15T01:28:52.552Z,86.83
2018-01-15T01:29:52.818Z,86.65
2018-01-15T01:30:52.832Z,86.74
2018-01-15T01:31:52.593Z,87.02
2018-01-15T01:32:52.855Z,86.93
2018-01-15T01:33:52.868Z,86.93
2018-01-15T01:34:52.882Z,86.83
2018-01-15T01:35:52.900Z,86.65
2018-01-15T01:36:52.904Z,86.27
2018-01-15T01:37:52.916Z,86.18
2018-01-15T01:38:52.931Z,86.27
2018-01-15T01:39:52.941Z,86.65
2018-01-15T01:40:52.953Z,86.65
2018-01-15T01:41:52.717Z,86.74
2018-01-15T01:42:52.793Z,86.18
2018-01-15T01:43:52.992Z,86.36
2018-01-15T01:44:53.003Z,86.27
2018-01-15T01:45:53.015Z,86.08
2018-01-15T01:46:52.779Z,86.27
2018-01-15T01:47:53.040Z,86.46
2018-01-15T01:48:53.065Z,86.74
2018-01-15T01:49:53.067Z,87.02
2018-01-15T01:50:53.081Z,86.83
2018-01-15T01:51:52.838Z,86.65
2018-01-15T01:52:52.851Z,86.93
2018-01-15T01:53:53.114Z,87.02
2018-01-15T01:54:53.128Z,86.83
2018-01-15T01:55:52.886Z,86.83
2018-01-15T01:56:53.147Z,86.74
2018-01-15T01:57:53.170Z,86.93
2018-01-15T01:58:52.926Z,86.65
2018-01-15T01:59:53.242Z,86.36
2018-01-15T02:00:52.948Z,86.55
2018-01-15T02:01:53.215Z,86.83
2018-01-15T02:02:52.974Z,86.55
2018-01-15T02:03:53.236Z,86.27
2018-01-15T02:04:53.252Z,86.83
2018-01-15T02:05:53.009Z,86.46
2018-01-15T02:06:53.275Z,85.99
2018-01-15T02:07:53.286Z,86.27
2018-01-15T02:08:53.048Z,86.46
2018-01-15T02:09:53.309Z,86.46
2018-01-15T02:10:53.323Z,86.46
2018-01-15T02:11:53.085Z,86.27
2018-01-15T02:12:53.365Z,86.55
2018-01-15T02:13:53.107Z,86.27
2018-01-15T02:14:53.422Z,86.46
2018-01-15T02:15:53.137Z,86.27
2018-01-15T02:16:53.395Z,86.65
2018-01-15T02:17:53.407Z,86.46
2018-01-15T02:18:53.171Z,86.18
2018-01-15T02:19:53.182Z,86.27
2018-01-15T02:20:53.563Z,85.8
2018-01-15T02:21:53.206Z,85.8
2018-01-15T02:22:53.473Z,86.41
2018-01-15T02:23:53.230Z,86.65
2018-01-15T02:24:53.494Z,86.46
2018-01-15T02:25:53.256Z,86.08
2018-01-15T02:26:53.562Z,86.36
2018-01-15T02:27:53.529Z,86.27
2018-01-15T02:28:53.293Z,85.89
2018-01-15T02:29:53.305Z,86.08
2018-01-15T02:30:53.624Z,86.36
2018-01-15T02:31:53.580Z,86.18
2018-01-15T02:32:53.594Z,85.99
2018-01-15T02:33:53.607Z,85.99
2018-01-15T02:34:53.619Z,85.61
2018-01-15T02:35:53.377Z,86.08
2018-01-15T02:36:53.647Z,85.7
2018-01-15T02:37:53.659Z,85.23
2018-01-15T02:38:53.430Z,85.7
2018-01-15T02:39:53.459Z,85.32
2018-01-15T02:40:53.439Z,84.94
2018-01-15T02:41:53.453Z,85.99
2018-01-15T02:42:53.721Z,85.7
2018-01-15T02:43:53.728Z,85.7
2018-01-15T02:44:53.739Z,85.23
2018-01-15T02:45:53.553Z,85.32
2018-01-15T02:46:53.766Z,85.04
2018-01-15T02:47:53.779Z,84.94
2018-01-15T02:48:53.537Z,84.75
2018-01-15T02:49:53.550Z,84.75
2018-01-15T02:50:53.819Z,84.56
2018-01-15T02:51:53.577Z,84.85
2018-01-15T02:52:53.587Z,84.47
2018-01-15T02:53:53.853Z,84.85
2018-01-15T02:54:53.871Z,84.7
2018-01-15T02:55:53.625Z,84.32
2018-01-15T02:56:53.638Z,84.61
2018-01-15T02:57:53.901Z,84.8
2018-01-15T02:58:53.917Z,84.89
2018-01-15T02:59:53.674Z,84.04
2018-01-15T03:00:53.988Z,84.04
2018-01-15T03:01:53.702Z,83.94
2018-01-15T03:02:53.986Z,84.61
2018-01-15T03:03:53.982Z,84.89
2018-01-15T03:04:53.992Z,84.89
2018-01-15T03:05:53.751Z,84.7
2018-01-15T03:06:54.015Z,84.61
2018-01-15T03:07:54.031Z,84.32
2018-01-15T03:08:53.788Z,84.23
2018-01-15T03:09:54.053Z,84.04
2018-01-15T03:10:53.814Z,83.94
2018-01-15T03:11:54.077Z,84.04
2018-01-15T03:12:53.839Z,84.51
2018-01-15T03:13:53.853Z,84.23
2018-01-15T03:14:54.117Z,83.94
2018-01-15T03:15:54.184Z,83.66
2018-01-15T03:16:54.139Z,83.66
2018-01-15T03:17:53.904Z,84.51
2018-01-15T03:18:54.167Z,84.23
2018-01-15T03:19:54.182Z,84.13
2018-01-15T03:20:54.295Z,83.47
2018-01-15T03:21:53.954Z,84.04
2018-01-15T03:22:53.966Z,84.04
2018-01-15T03:23:53.980Z,83.28
2018-01-15T03:24:54.242Z,83.75
2018-01-15T03:25:54.258Z,84.04
2018-01-15T03:26:54.019Z,83.85
2018-01-15T03:27:54.037Z,84.23
2018-01-15T03:28:54.048Z,84.04
2018-01-15T03:29:54.306Z,83.94
2018-01-15T03:30:54.120Z,83.66
2018-01-15T03:31:54.343Z,83.28
2018-01-15T03:32:54.096Z,83.18
2018-01-15T03:33:54.359Z,83.28
2018-01-15T03:34:54.377Z,83.18
2018-01-15T03:35:54.382Z,82.81
2018-01-15T03:36:54.402Z,83.56
2018-01-15T03:37:54.159Z,83.47
2018-01-15T03:38:54.173Z,82.71
2018-01-15T03:39:54.185Z,82.81
2018-01-15T03:40:54.195Z,83.28
2018-01-15T03:41:54.211Z,83
2018-01-15T03:42:54.479Z,83.47
2018-01-15T03:43:54.495Z,83.37
2018-01-15T03:44:54.505Z,83.47
2018-01-15T03:45:54.565Z,83.37
2018-01-15T03:46:54.527Z,83.47
2018-01-15T03:47:54.295Z,83.47
2018-01-15T03:48:54.550Z,83.75
2018-01-15T03:49:54.567Z,84.23
2018-01-15T03:50:54.580Z,84.13
2018-01-15T03:51:54.588Z,84.19
2018-01-15T03:52:54.606Z,84.13
2018-01-15T03:53:54.363Z,84.04
2018-01-15T03:54:54.629Z,84.23
2018-01-15T03:55:54.639Z,84.32
2018-01-15T03:56:54.403Z,84.04
2018-01-15T03:57:54.668Z,83.85
2018-01-15T03:58:54.682Z,84.32
2018-01-15T03:59:54.440Z,83.66
2018-01-15T04:00:54.756Z,83.47
2018-01-15T04:01:54.720Z,83.66
2018-01-15T04:02:54.735Z,83.47
2018-01-15T04:03:54.492Z,83.85
2018-01-15T04:04:54.506Z,83.37
2018-01-15T04:05:54.519Z,83.56
2018-01-15T04:06:54.782Z,83.85
2018-01-15T04:07:54.807Z,83.47
2018-01-15T04:08:54.561Z,84
2018-01-15T04:09:54.822Z,84.42
2018-01-15T04:10:54.581Z,84.23
2018-01-15T04:11:54.852Z,84.23
2018-01-15T04:12:54.607Z,84.66
2018-01-15T04:13:54.876Z,84.66
2018-01-15T04:14:54.885Z,84.56
2018-01-15T04:15:54.698Z,84.56
2018-01-15T04:16:54.661Z,84.85
2018-01-15T04:17:54.672Z,85.23
2018-01-15T04:18:54.686Z,84.85
2018-01-15T04:19:54.951Z,84.75
2018-01-15T04:20:54.963Z,84.75
2018-01-15T04:21:54.724Z,85.04
2018-01-15T04:22:54.736Z,85.23
2018-01-15T04:23:55.005Z,84.94
2018-01-15T04:24:55.013Z,85.7
2018-01-15T04:25:54.772Z,85.13
2018-01-15T04:26:55.038Z,85.23
2018-01-15T04:27:54.800Z,85.61
2018-01-15T04:28:55.062Z,85.89
2018-01-15T04:29:54.829Z,85.99
2018-01-15T04:30:54.889Z,86.18
2018-01-15T04:31:54.851Z,85.42
2018-01-15T04:32:55.116Z,85.7
2018-01-15T04:33:54.881Z,85.61
2018-01-15T04:34:55.140Z,85.61
2018-01-15T04:35:54.899Z,85.7
2018-01-15T04:36:55.165Z,86.27
2018-01-15T04:37:54.926Z,85.51
2018-01-15T04:38:55.191Z,85.51
2018-01-15T04:39:55.203Z,85.61
2018-01-15T04:40:54.965Z,85.51
2018-01-15T04:41:55.226Z,86.36
2018-01-15T04:42:54.988Z,85.8
2018-01-15T04:43:55.001Z,85.99
2018-01-15T04:44:55.264Z,86.27
2018-01-15T04:45:55.325Z,85.99
2018-01-15T04:46:55.286Z,86.27
2018-01-15T04:47:55.048Z,85.61
2018-01-15T04:48:55.312Z,85.7
2018-01-15T04:49:55.076Z,85.7
2018-01-15T04:50:55.340Z,85.99
2018-01-15T04:51:55.352Z,85.99
2018-01-15T04:52:55.370Z,85.8
2018-01-15T04:53:55.128Z,86.27
2018-01-15T04:54:55.405Z,85.8
2018-01-15T04:55:55.506Z,86.08
2018-01-15T04:56:55.419Z,86.46
2018-01-15T04:57:55.428Z,86.18
2018-01-15T04:58:55.443Z,86.18
2018-01-15T04:59:55.458Z,86.27
2018-01-15T05:00:55.264Z,85.51
2018-01-15T05:01:55.483Z,85.61
2018-01-15T05:02:55.240Z,85.51
2018-01-15T05:03:55.505Z,85.89
2018-01-15T05:04:55.262Z,86.27
2018-01-15T05:05:55.276Z,85.8
2018-01-15T05:06:55.291Z,85.61
2018-01-15T05:07:55.555Z,85.32
2018-01-15T05:08:55.565Z,85.7
2018-01-15T05:09:55.580Z,85.42
2018-01-15T05:10:55.341Z,85.51
2018-01-15T05:11:55.605Z,85.32
2018-01-15T05:12:55.613Z,85.51
2018-01-15T05:13:55.627Z,84.85
2018-01-15T05:14:55.641Z,85.32
2018-01-15T05:15:55.451Z,85.32
2018-01-15T05:16:55.666Z,85.04
2018-01-15T05:17:55.425Z,85.32
2018-01-15T05:18:55.440Z,85.04
2018-01-15T05:19:55.707Z,84.85
2018-01-15T05:20:55.464Z,84.85
2018-01-15T05:21:55.736Z,84.66
2018-01-15T05:22:55.742Z,84.56
2018-01-15T05:23:55.754Z,84.47
2018-01-15T05:24:55.768Z,84.85
2018-01-15T05:25:55.790Z,84.47
2018-01-15T05:26:55.539Z,84.66
2018-01-15T05:27:55.810Z,84.56
2018-01-15T05:28:55.818Z,85.23
2018-01-15T05:29:55.580Z,85.89
2018-01-15T05:30:55.592Z,85.23
2018-01-15T05:31:55.606Z,85.23
2018-01-15T05:32:55.618Z,84.47
2018-01-15T05:33:55.942Z,84.85
2018-01-15T05:34:55.892Z,84.56
2018-01-15T05:35:55.915Z,85.23
2018-01-15T05:36:55.668Z,85.13
2018-01-15T05:37:55.700Z,85.61
2018-01-15T05:38:55.693Z,85.7
2018-01-15T05:39:55.956Z,85.61
2018-01-15T05:40:55.720Z,84.85
2018-01-15T05:41:55.982Z,84.94
2018-01-15T05:42:55.994Z,85.04
2018-01-15T05:43:56.055Z,86.18
2018-01-15T05:44:56.024Z,85.89
2018-01-15T05:45:56.086Z,86.27
2018-01-15T05:46:56.049Z,85.7
2018-01-15T05:47:55.810Z,85.61
2018-01-15T05:48:56.122Z,85.61
2018-01-15T05:49:56.084Z,85.99
2018-01-15T05:50:55.848Z,86.27
2018-01-15T05:51:56.113Z,85.99
2018-01-15T05:52:55.887Z,85.61
2018-01-15T05:53:56.142Z,85.7
2018-01-15T05:54:56.151Z,85.51
2018-01-15T05:55:56.163Z,85.61
2018-01-15T05:56:55.927Z,85.42
2018-01-15T05:57:55.936Z,85.04
2018-01-15T05:58:56.049Z,85.32
2018-01-15T05:59:55.961Z,85.13
2018-01-15T06:00:55.974Z,85.04
2018-01-15T06:01:56.256Z,85.23
2018-01-15T06:02:56.257Z,85.04
2018-01-15T06:03:56.315Z,84.75
2018-01-15T06:04:56.281Z,84.66
2018-01-15T06:05:56.289Z,84.56
2018-01-15T06:06:56.305Z,84.75
2018-01-15T06:07:56.367Z,84.56
2018-01-15T06:08:56.337Z,84.56
2018-01-15T06:09:56.089Z,84.38
2018-01-15T06:10:56.102Z,84.56
2018-01-15T06:11:56.373Z,84.66
2018-01-15T06:12:56.380Z,84.66
2018-01-15T06:13:56.397Z,84.56
2018-01-15T06:14:56.154Z,84.47
2018-01-15T06:15:56.417Z,84.75
2018-01-15T06:16:56.183Z,84.75
2018-01-15T06:17:56.195Z,84.56
2018-01-15T06:18:56.256Z,84.19
2018-01-15T06:19:56.475Z,84.47
2018-01-15T06:20:56.484Z,84.09
2018-01-15T06:21:56.244Z,84.85
2018-01-15T06:22:56.257Z,84.28
2018-01-15T06:23:56.270Z,84.75
2018-01-15T06:24:56.602Z,84.28
2018-01-15T06:25:56.296Z,83.9
2018-01-15T06:26:56.558Z,84.04
2018-01-15T06:27:56.322Z,84.32
2018-01-15T06:28:56.586Z,84.32
2018-01-15T06:29:56.598Z,83.56
2018-01-15T06:30:56.361Z,83.66
2018-01-15T06:31:56.630Z,84.04
2018-01-15T06:32:56.638Z,83.94
2018-01-15T06:33:56.403Z,83.56
2018-01-15T06:34:56.666Z,83.18
2018-01-15T06:35:56.436Z,83.28
2018-01-15T06:36:56.698Z,83.56
2018-01-15T06:37:56.452Z,84.04
2018-01-15T06:38:56.465Z,84
2018-01-15T06:39:56.730Z,84.47
2018-01-15T06:40:56.492Z,84.47
2018-01-15T06:41:56.759Z,84.85
2018-01-15T06:42:56.768Z,84.09
2018-01-15T06:43:56.531Z,83.9
2018-01-15T06:44:56.545Z,84.23
2018-01-15T06:45:56.811Z,84.23
2018-01-15T06:46:56.570Z,84.23
2018-01-15T06:47:56.847Z,84.13
2018-01-15T06:48:56.856Z,84.04
2018-01-15T06:49:56.611Z,83.75
2018-01-15T06:50:56.874Z,83.75
2018-01-15T06:51:56.638Z,83.56
2018-01-15T06:52:56.959Z,84.04
2018-01-15T06:53:56.918Z,84.04
2018-01-15T06:54:56.677Z,83.56
2018-01-15T06:55:56.942Z,83.75
2018-01-15T06:56:56.703Z,83.75
2018-01-15T06:57:56.967Z,83.37
2018-01-15T06:58:56.981Z,83.37
2018-01-15T06:59:57.000Z,83.47
2018-01-15T07:00:57.013Z,83.56
2018-01-15T07:01:57.021Z,83.18
2018-01-15T07:02:57.088Z,83.37
2018-01-15T07:03:57.068Z,83.75
2018-01-15T07:04:56.810Z,83.47
2018-01-15T07:05:57.074Z,83.66
2018-01-15T07:06:57.087Z,83.28
2018-01-15T07:07:56.849Z,83.28
2018-01-15T07:08:57.113Z,83.18
2018-01-15T07:09:57.125Z,83.09
2018-01-15T07:10:57.140Z,83.37
2018-01-15T07:11:56.921Z,83.66
2018-01-15T07:12:57.168Z,83.94
2018-01-15T07:13:57.181Z,84.04
2018-01-15T07:14:57.196Z,83.47
2018-01-15T07:15:57.208Z,83.66
2018-01-15T07:16:57.220Z,83.28
2018-01-15T07:17:57.252Z,83.37
2018-01-15T07:18:57.265Z,83.47
2018-01-15T07:19:57.007Z,82.81
2018-01-15T07:20:57.019Z,83
2018-01-15T07:21:57.287Z,83.09
2018-01-15T07:22:57.047Z,82.71
2018-01-15T07:23:57.314Z,82.71
2018-01-15T07:24:57.074Z,83
2018-01-15T07:25:57.339Z,82.9
2018-01-15T07:26:57.099Z,82.52
2018-01-15T07:27:57.118Z,82.71
2018-01-15T07:28:57.379Z,83.56
2018-01-15T07:29:57.389Z,83.18
2018-01-15T07:30:57.153Z,83.56
2018-01-15T07:31:57.168Z,83.47
2018-01-15T07:32:57.430Z,83.56
2018-01-15T07:33:57.484Z,82.9
2018-01-15T07:34:57.253Z,82.14
2018-01-15T07:35:57.468Z,82.43
2018-01-15T07:36:57.483Z,82.71
2018-01-15T07:37:57.499Z,82.62
2018-01-15T07:38:57.508Z,82.9
2018-01-15T07:39:57.520Z,82.81
2018-01-15T07:40:57.538Z,83
2018-01-15T07:41:57.297Z,83.09
2018-01-15T07:42:57.559Z,82.9
2018-01-15T07:43:57.587Z,83.56
2018-01-15T07:44:57.589Z,83.37
2018-01-15T07:45:57.597Z,83.37
2018-01-15T07:46:57.611Z,83.56
2018-01-15T07:47:57.623Z,83.18
2018-01-15T07:48:57.638Z,82.62
2018-01-15T07:49:57.599Z,83.18
2018-01-15T07:50:57.413Z,82.52
2018-01-15T07:51:57.677Z,82.9
2018-01-15T07:52:57.693Z,82.43
2018-01-15T07:53:57.703Z,81.67
2018-01-15T07:54:57.716Z,82.33
2018-01-15T07:55:57.731Z,82.33
2018-01-15T07:56:57.491Z,82.52
2018-01-15T07:57:57.756Z,82.37
2018-01-15T07:58:57.516Z,81.9
2018-01-15T07:59:57.530Z,81.81
2018-01-15T08:00:57.795Z,81.24
2018-01-15T08:01:57.809Z,81.43
2018-01-15T08:02:57.823Z,81.29
2018-01-15T08:03:57.849Z,81.95
2018-01-15T08:04:57.900Z,81.76
2018-01-15T08:05:57.613Z,81.57
2018-01-15T08:06:57.625Z,81.14
2018-01-15T08:07:57.638Z,81.24
2018-01-15T08:08:57.653Z,81.43
2018-01-15T08:09:57.667Z,80.57
2018-01-15T08:10:57.680Z,80.53
2018-01-15T08:11:57.692Z,80.44
2018-01-15T08:12:57.706Z,81.1
2018-01-15T08:13:57.973Z,80.53
2018-01-15T08:14:57.733Z,80.53
2018-01-15T08:15:57.746Z,80.91
2018-01-15T08:16:58.007Z,81.48
2018-01-15T08:17:58.022Z,81.48
2018-01-15T08:18:58.035Z,81.86
2018-01-15T08:19:57.848Z,81.95
2018-01-15T08:20:57.815Z,81.1
2018-01-15T08:21:57.827Z,81.95
2018-01-15T08:22:57.844Z,82.05
2018-01-15T08:23:58.106Z,81.1
2018-01-15T08:24:57.867Z,81.29
2018-01-15T08:25:58.133Z,81.2
2018-01-15T08:26:58.144Z,81.1
2018-01-15T08:27:58.227Z,81.67
2018-01-15T08:28:58.182Z,81.86
2018-01-15T08:29:57.961Z,81.95
2018-01-15T08:30:57.959Z,81.76
2018-01-15T08:31:57.960Z,81.57
2018-01-15T08:32:57.972Z,81.86
2018-01-15T08:33:57.985Z,81.2
2018-01-15T08:34:58.298Z,81.1
2018-01-15T08:35:58.265Z,81.86
2018-01-15T08:36:58.275Z,81.67
2018-01-15T08:37:58.040Z,81.57
2018-01-15T08:38:58.050Z,81.57
2018-01-15T08:39:58.065Z,81.95
2018-01-15T08:40:58.329Z,81.95
2018-01-15T08:41:58.092Z,81.57
2018-01-15T08:42:58.105Z,81.1
2018-01-15T08:43:58.127Z,81.2
2018-01-15T08:44:58.230Z,80.82
2018-01-15T08:45:58.478Z,80.63
2018-01-15T08:46:58.413Z,80.63
2018-01-15T08:47:58.167Z,81.01
2018-01-15T08:48:58.434Z,80.82
2018-01-15T08:49:58.496Z,80.82
2018-01-15T08:50:58.459Z,80.63
2018-01-15T08:51:58.220Z,80.82
2018-01-15T08:52:58.485Z,80.72
2018-01-15T08:53:58.251Z,80.25
2018-01-15T08:54:58.259Z,79.96
2018-01-15T08:55:58.526Z,80.25
2018-01-15T08:56:58.289Z,80.25
2018-01-15T08:57:58.304Z,80.25
2018-01-15T08:58:58.580Z,80.15
2018-01-15T08:59:58.328Z,80.57
2018-01-15T09:00:58.372Z,79.63
2018-01-15T09:01:58.609Z,79.34
2018-01-15T09:02:58.617Z,79.25
2018-01-15T09:03:58.633Z,78.96
2018-01-15T09:04:58.646Z,78.49
2018-01-15T09:05:58.660Z,77.83
2018-01-15T09:06:58.539Z,77.64
2018-01-15T09:07:58.688Z,77.16
2018-01-15T09:08:58.701Z,77.45
2018-01-15T09:09:58.715Z,77.64
2018-01-15T09:10:58.728Z,77.64
2018-01-15T09:11:58.744Z,77.54
2018-01-15T09:12:58.756Z,76.87
2018-01-15T09:13:58.772Z,76.97
2018-01-15T09:14:58.530Z,76.59
2018-01-15T09:15:58.545Z,76.78
2018-01-15T09:16:58.559Z,77.25
2018-01-15T09:17:58.831Z,76.78
2018-01-15T09:18:58.587Z,77.11
2018-01-15T09:19:58.855Z,76.63
2018-01-15T09:20:58.867Z,76.34
2018-01-15T09:21:58.935Z,76.25
2018-01-15T09:22:58.645Z,75.31
2018-01-15T09:23:58.658Z,75.68
2018-01-15T09:24:58.928Z,75.78
2018-01-15T09:25:58.686Z,75.49
2018-01-15T09:26:58.956Z,75.21
2018-01-15T09:27:58.715Z,74.83
2018-01-15T09:28:58.980Z,74.26
2018-01-15T09:29:58.742Z,74.26
2018-01-15T09:30:59.009Z,74.54
2018-01-15T09:31:59.028Z,75.02
2018-01-15T09:32:59.037Z,74.92
2018-01-15T09:33:59.052Z,74.35
2018-01-15T09:34:58.814Z,73.69
2018-01-15T09:35:59.085Z,73.69
2018-01-15T09:36:59.146Z,74.35
2018-01-15T09:37:58.859Z,74.07
2018-01-15T09:38:58.874Z,74.45
2018-01-15T09:39:58.890Z,74.35
2018-01-15T09:40:59.155Z,74.07
2018-01-15T09:41:58.918Z,73.79
2018-01-15T09:42:58.933Z,74.07
2018-01-15T09:43:58.948Z,73.69
2018-01-15T09:44:59.235Z,74.54
2018-01-15T09:45:58.979Z,73.79
2018-01-15T09:46:59.245Z,74.07
2018-01-15T09:47:59.264Z,74.35
2018-01-15T09:48:59.023Z,73.97
2018-01-15T09:49:59.293Z,74.07
2018-01-15T09:50:59.054Z,73.69
2018-01-15T09:51:59.374Z,73.92
2018-01-15T09:52:59.336Z,73.88
2018-01-15T09:53:59.348Z,74.07
2018-01-15T09:54:59.112Z,73.79
2018-01-15T09:55:59.131Z,73.69
2018-01-15T09:56:59.393Z,73.72
2018-01-15T09:57:59.155Z,73.54
2018-01-15T09:58:59.173Z,73.22
2018-01-15T09:59:59.443Z,72.88
2018-01-15T10:00:59.455Z,72.68
2018-01-15T10:01:59.218Z,72.4
2018-01-15T10:02:59.482Z,72.68
2018-01-15T10:03:59.499Z,72.59
2018-01-15T10:04:59.514Z,72.11
2018-01-15T10:05:59.532Z,71.64
2018-01-15T10:06:59.340Z,71.92
2018-01-15T10:07:59.562Z,71.83
2018-01-15T10:08:59.575Z,71.83
2018-01-15T10:09:59.336Z,72.59
2018-01-15T10:10:59.605Z,70.63
2018-01-15T10:11:59.368Z,70.44
2018-01-15T10:12:59.635Z,70.25
2018-01-15T10:13:59.654Z,69.49
2018-01-15T10:14:59.417Z,69.24
2018-01-15T10:15:59.721Z,67.82
2018-01-15T10:16:59.705Z,66.2
2018-01-15T10:17:59.470Z,66.05
2018-01-15T10:18:59.742Z,65.67
2018-01-15T10:19:59.759Z,64.43
2018-01-15T10:20:59.525Z,63.67
2018-01-15T10:21:59.846Z,63.01
2018-01-15T10:22:59.812Z,61.71
2018-01-15T10:23:59.833Z,60.75
2018-01-15T10:24:59.600Z,61.13
2018-01-15T10:25:59.619Z,59.93
2018-01-15T10:26:59.896Z,58.59
2018-01-15T10:27:59.912Z,57.87
2018-01-15T10:28:59.937Z,55.29
2018-01-15T10:29:59.958Z,55.22
2018-01-15T10:30:59.727Z,53.99
2018-01-15T10:31:59.747Z,53.61
2018-01-15T10:33:00.029Z,53.83
2018-01-15T10:34:00.058Z,52.68
2018-01-15T10:35:00.071Z,51.82
2018-01-15T10:35:59.837Z,51.64
2018-01-15T10:37:00.169Z,51.16
2018-01-15T10:37:59.883Z,51.66
2018-01-15T10:38:59.908Z,50.16
2018-01-15T10:40:00.181Z,48.57
2018-01-15T10:41:00.204Z,47.42
2018-01-15T10:41:59.979Z,46.56
2018-01-15T10:43:00.260Z,45.32
2018-01-15T10:44:00.027Z,45.53
2018-01-15T10:45:00.054Z,45.25
2018-01-15T10:46:00.075Z,45.06
2018-01-15T10:47:00.351Z,43.65
2018-01-15T10:48:00.126Z,42.31
2018-01-15T10:49:00.149Z,42.88
2018-01-15T10:50:00.175Z,41.47
2018-01-15T10:51:00.214Z,40.88
2018-01-15T10:52:00.276Z,40.8
2018-01-15T10:53:00.503Z,41.06
2018-01-15T10:54:00.276Z,41.45
2018-01-15T10:55:00.303Z,40.42
2018-01-15T10:56:00.586Z,39.39
2018-01-15T10:57:00.358Z,39.65
2018-01-15T10:58:00.383Z,39.48
2018-01-15T10:59:00.412Z,38.91
2018-01-15T11:00:00.440Z,38.26
2018-01-15T11:01:00.713Z,38.26
2018-01-15T11:02:00.740Z,38.14
2018-01-15T11:03:00.517Z,38.26
2018-01-15T11:04:00.543Z,37.11
2018-01-15T11:05:00.571Z,37.3
2018-01-15T11:06:00.852Z,37.3
2018-01-15T11:07:00.930Z,37.04
2018-01-15T11:08:00.904Z,36.75
2018-01-15T11:09:00.932Z,36.84
2018-01-15T11:10:00.709Z,36.46
2018-01-15T11:11:00.737Z,35.71
2018-01-15T11:12:00.765Z,35.42
2018-01-15T11:13:00.792Z,36.19
2018-01-15T11:14:01.075Z,34.96
2018-01-15T11:15:00.852Z,35.14
2018-01-15T11:16:01.206Z,34.66
2018-01-15T11:17:00.908Z,33.81
2018-01-15T11:18:00.971Z,34.37
2018-01-15T11:19:00.962Z,33.72
2018-01-15T11:20:00.994Z,33.81
2018-01-15T11:21:01.272Z,32.6
2018-01-15T11:22:01.648Z,33.54
2018-01-15T11:23:01.414Z,33.16
2018-01-15T11:24:01.114Z,32.87
2018-01-15T11:25:01.135Z,32.98
2018-01-15T11:26:01.416Z,31.27
2018-01-15T11:27:01.443Z,31.27
2018-01-15T11:28:01.630Z,31.54
2018-01-15T11:29:01.249Z,30.7
2018-01-15T11:30:01.533Z,30.52
2018-01-15T11:31:01.310Z,30.52
2018-01-15T11:32:01.590Z,30.04
2018-01-15T11:33:01.619Z,30.04
2018-01-15T11:34:01.647Z,30.43
2018-01-15T11:35:01.427Z,31.18
2018-01-15T11:36:01.713Z,30.89
2018-01-15T11:37:01.789Z,31.08
2018-01-15T11:38:01.849Z,31.18
2018-01-15T11:39:01.799Z,31.18
2018-01-15T11:40:01.826Z,30.14
2018-01-15T11:41:01.856Z,30.62
2018-01-15T11:42:01.885Z,30.15
2018-01-15T11:43:01.655Z,29.3
2018-01-15T11:44:01.683Z,29.69
2018-01-15T11:45:01.965Z,29.02
2018-01-15T11:46:02.015Z,28.74
2018-01-15T11:47:02.038Z,27.98
2018-01-15T11:48:01.816Z,27.4
2018-01-15T11:49:01.850Z,26.93
2018-01-15T11:50:01.877Z,27.12
2018-01-15T11:51:01.906Z,27.39
2018-01-15T11:52:01.988Z,27.5
2018-01-15T11:53:01.967Z,26.36
2018-01-15T11:54:02.250Z,26.84
2018-01-15T11:55:02.286Z,26.07
2018-01-15T11:56:02.060Z,25.59
2018-01-15T11:57:02.349Z,25.51
2018-01-15T11:58:02.376Z,24.75
2018-01-15T11:59:02.410Z,24.27
2018-01-15T12:00:02.454Z,24.46
2018-01-15T12:01:02.473Z,24.54
2018-01-15T12:02:02.499Z,24.82
2018-01-15T12:03:02.531Z,25.79
2018-01-15T12:04:02.311Z,24.65
2018-01-15T12:05:02.594Z,23.6
2018-01-15T12:06:02.625Z,24.27
2018-01-15T12:07:02.456Z,24.18
2018-01-15T12:08:02.437Z,23.61
2018-01-15T12:09:02.721Z,23.79
2018-01-15T12:10:02.751Z,23.41
2018-01-15T12:11:02.784Z,23.32
2018-01-15T12:12:02.561Z,23.8
2018-01-15T12:13:02.592Z,24.46
2018-01-15T12:14:02.628Z,24.08
2018-01-15T12:15:02.655Z,23.61
2018-01-15T12:16:02.945Z,24.27
2018-01-15T12:17:03.024Z,24.37
2018-01-15T12:18:03.006Z,23.22
2018-01-15T12:19:02.807Z,23.51
2018-01-15T12:20:03.067Z,23.88
2018-01-15T12:21:02.847Z,23.71
2018-01-15T12:22:03.185Z,22.66
2018-01-15T12:23:03.161Z,21.88
2018-01-15T12:24:02.942Z,22.64
2018-01-15T12:25:03.224Z,23.13
2018-01-15T12:26:03.260Z,23.68
2018-01-15T12:27:03.291Z,23.49
2018-01-15T12:28:03.322Z,23.88
2018-01-15T12:29:03.101Z,23.03
2018-01-15T12:30:03.418Z,23.22
2018-01-15T12:31:03.164Z,23.4
2018-01-15T12:32:03.198Z,23.87
2018-01-15T12:33:03.228Z,23.58
2018-01-15T12:34:03.514Z,22.74
2018-01-15T12:35:03.545Z,22.16
2018-01-15T12:36:03.322Z,21.88
2018-01-15T12:37:03.405Z,22.84
2018-01-15T12:38:03.640Z,22.64
2018-01-15T12:39:03.673Z,22.55
2018-01-15T12:40:03.731Z,23.21
2018-01-15T12:41:03.485Z,22.66
2018-01-15T12:42:03.767Z,21.8
2018-01-15T12:43:03.547Z,22.09
2018-01-15T12:44:03.578Z,21.8
2018-01-15T12:45:03.863Z,21.8
2018-01-15T12:46:03.894Z,21.51
2018-01-15T12:47:03.928Z,21.52
2018-01-15T12:48:03.959Z,21.13
2018-01-15T12:49:03.990Z,20.86
2018-01-15T12:50:04.023Z,19.91
2018-01-15T12:51:04.055Z,19.81
2018-01-15T12:52:04.136Z,20.08
2018-01-15T12:53:04.120Z,20.09
2018-01-15T12:54:03.899Z,19.79
2018-01-15T12:55:04.187Z,19.98
2018-01-15T12:56:04.218Z,19.89